createdAt,value
2023-04-19T00:00:18.394Z,9.65
2023-04-19T00:02:45.826Z,9.73
2023-04-19T00:05:13.565Z,9.43
2023-04-19T00:07:41.326Z,11.18
2023-04-19T00:10:08.817Z,9.23
2023-04-19T00:12:36.592Z,10.23
2023-04-19T00:15:03.849Z,9.85
2023-04-19T00:17:31.178Z,10.10
2023-04-19T00:19:58.470Z,9.60
2023-04-19T00:22:26.167Z,10.25
2023-04-19T00:24:53.844Z,10.70
2023-04-19T00:27:21.351Z,10.02
2023-04-19T00:29:48.744Z,10.23
2023-04-19T00:32:16.527Z,10.55
2023-04-19T00:34:43.785Z,9.52
2023-04-19T00:37:11.327Z,10.52
2023-04-19T00:39:39.924Z,11.00
2023-04-19T00:42:07.345Z,11.82
2023-04-19T00:44:34.648Z,12.02
2023-04-19T00:47:01.977Z,11.10
2023-04-19T00:49:30.159Z,11.40
2023-04-19T00:51:57.395Z,10.77
2023-04-19T00:54:24.659Z,11.05
2023-04-19T00:56:52.202Z,11.90
2023-04-19T00:59:19.617Z,10.52
2023-04-19T01:01:47.022Z,10.77
2023-04-19T01:04:14.865Z,11.25
2023-04-19T01:06:42.590Z,13.18
2023-04-19T01:11:43.185Z,11.13
2023-04-19T01:14:11.024Z,11.30
2023-04-19T01:16:39.189Z,11.82
2023-04-19T01:19:06.518Z,11.35
2023-04-19T01:21:33.869Z,11.32
2023-04-19T01:24:01.182Z,11.52
2023-04-19T01:26:28.475Z,11.68
2023-04-19T01:28:55.771Z,11.43
2023-04-19T01:31:23.017Z,11.27
2023-04-19T01:33:50.347Z,11.93
2023-04-19T01:36:17.622Z,12.35
2023-04-19T01:38:47.638Z,11.70
2023-04-19T01:41:14.957Z,11.90
2023-04-19T01:43:42.207Z,12.65
2023-04-19T01:46:09.416Z,13.82
2023-04-19T01:48:38.605Z,13.38
2023-04-19T01:51:05.884Z,12.60
2023-04-19T01:53:35.356Z,11.90
2023-04-19T01:56:02.608Z,13.18
2023-04-19T01:58:29.806Z,12.43
2023-04-19T02:00:57.080Z,13.20
2023-04-19T02:03:24.478Z,14.18
2023-04-19T02:05:51.801Z,12.90
2023-04-19T02:08:22.407Z,12.88
2023-04-19T02:10:49.748Z,14.27
2023-04-19T02:13:17.794Z,14.45
2023-04-19T02:15:45.037Z,13.55
2023-04-19T02:18:13.542Z,14.18
2023-04-19T02:20:40.846Z,12.80
2023-04-19T02:23:08.093Z,14.52
2023-04-19T02:25:35.529Z,14.40
2023-04-19T02:28:02.810Z,13.15
2023-04-19T02:30:30.290Z,13.57
2023-04-19T02:32:58.819Z,13.93
2023-04-19T02:35:26.192Z,14.95
2023-04-19T02:37:53.437Z,13.57
2023-04-19T02:40:22.851Z,13.60
2023-04-19T02:42:51.138Z,14.90
2023-04-19T02:45:18.430Z,14.38
2023-04-19T02:47:47.149Z,14.57
2023-04-19T02:50:16.514Z,14.60
2023-04-19T02:52:48.672Z,14.65
2023-04-19T02:55:16.058Z,13.07
2023-04-19T02:57:44.752Z,15.00
2023-04-19T03:00:12.450Z,14.52
2023-04-19T03:02:46.499Z,13.75
2023-04-19T03:05:13.898Z,14.38
2023-04-19T03:07:43.148Z,15.75
2023-04-19T03:10:11.874Z,14.32
2023-04-19T03:12:39.175Z,14.02
2023-04-19T03:15:07.118Z,14.23
2023-04-19T03:17:34.553Z,13.70
2023-04-19T03:20:01.917Z,14.27
2023-04-19T03:22:30.632Z,13.70
2023-04-19T03:24:57.866Z,15.13
2023-04-19T03:27:25.216Z,16.27
2023-04-19T03:29:58.406Z,13.98
2023-04-19T03:32:26.755Z,13.13
2023-04-19T03:34:53.967Z,14.43
2023-04-19T03:37:21.286Z,14.05
2023-04-19T03:39:49.176Z,13.23
2023-04-19T03:42:22.502Z,13.77
2023-04-19T03:44:55.886Z,13.48
2023-04-19T03:47:24.318Z,13.00
2023-04-19T03:49:55.321Z,14.30
2023-04-19T03:52:22.807Z,14.25
2023-04-19T03:54:51.656Z,12.95
2023-04-19T03:57:29.658Z,13.32
2023-04-19T03:59:59.074Z,12.98
2023-04-19T04:02:26.683Z,12.98
2023-04-19T04:04:55.227Z,13.52
2023-04-19T04:07:24.627Z,13.55
2023-04-19T04:09:52.092Z,13.00
2023-04-19T04:12:19.369Z,14.45
2023-04-19T04:14:46.976Z,13.02
2023-04-19T04:17:14.873Z,12.75
2023-04-19T04:19:42.335Z,13.13
2023-04-19T04:22:09.661Z,13.05
2023-04-19T04:24:41.732Z,11.95
2023-04-19T04:27:21.977Z,13.40
2023-04-19T04:29:53.125Z,13.15
2023-04-19T04:32:23.439Z,12.57
2023-04-19T04:34:55.033Z,12.93
2023-04-19T04:37:34.054Z,12.20
2023-04-19T04:40:01.991Z,13.18
2023-04-19T04:42:31.528Z,13.35
2023-04-19T04:45:01.645Z,12.82
2023-04-19T04:47:34.519Z,16.88
2023-04-19T04:50:06.074Z,11.85
2023-04-19T04:52:33.805Z,12.82
2023-04-19T04:55:10.413Z,13.35
2023-04-19T04:57:42.733Z,14.27
2023-04-19T05:00:15.648Z,13.38
2023-04-19T05:02:53.880Z,12.03
2023-04-19T05:05:21.842Z,12.77
2023-04-19T05:07:49.750Z,12.75
2023-04-19T05:10:17.441Z,14.15
2023-04-19T05:12:46.354Z,11.50
2023-04-19T05:15:13.686Z,12.05
2023-04-19T05:17:45.955Z,12.50
2023-04-19T05:20:14.411Z,9.77
2023-04-19T05:22:42.989Z,12.80
2023-04-19T05:25:11.885Z,9.90
2023-04-19T05:27:40.044Z,10.10
2023-04-19T05:30:08.335Z,13.57
2023-04-19T05:32:40.771Z,12.50
2023-04-19T05:35:11.364Z,11.70
2023-04-19T05:37:38.932Z,12.93
2023-04-19T05:40:09.422Z,12.25
2023-04-19T05:42:36.732Z,12.43
2023-04-19T05:45:06.286Z,12.25
2023-04-19T05:50:21.011Z,11.90
2023-04-19T05:53:03.795Z,11.00
2023-04-19T05:55:31.276Z,11.40
2023-04-19T05:58:01.741Z,9.77
2023-04-19T06:00:30.999Z,10.73
2023-04-19T06:03:06.790Z,11.82
2023-04-19T06:05:34.262Z,10.18
2023-04-19T06:08:03.003Z,9.93
2023-04-19T06:10:40.375Z,10.95
2023-04-19T06:13:18.043Z,9.60
2023-04-19T06:15:45.451Z,9.65
2023-04-19T06:18:18.977Z,10.50
2023-04-19T06:20:47.153Z,9.18
2023-04-19T06:23:15.194Z,9.13
2023-04-19T06:25:42.683Z,7.68
2023-04-19T06:28:09.937Z,9.52
2023-04-19T06:30:37.188Z,9.55
2023-04-19T06:33:04.562Z,9.63
2023-04-19T06:35:32.220Z,9.32
2023-04-19T06:37:59.977Z,9.57
2023-04-19T06:40:29.324Z,9.30
2023-04-19T06:45:23.930Z,8.48
2023-04-19T06:47:51.370Z,8.65
2023-04-19T06:50:18.763Z,10.15
2023-04-19T06:52:46.163Z,8.95
2023-04-19T06:55:13.375Z,8.77
2023-04-19T06:57:40.885Z,7.53
2023-04-19T07:00:08.431Z,9.30
2023-04-19T07:02:35.921Z,7.55
2023-04-19T07:05:03.829Z,7.88
2023-04-19T07:07:31.169Z,7.20
2023-04-19T07:09:58.427Z,8.10
2023-04-19T07:12:25.695Z,9.20
2023-04-19T07:14:56.457Z,7.78
2023-04-19T07:17:24.019Z,8.50
2023-04-19T07:19:51.376Z,8.07
2023-04-19T07:22:18.654Z,7.63
2023-04-19T07:24:46.018Z,7.57
2023-04-19T07:27:14.402Z,9.23
2023-04-19T07:29:41.632Z,6.97
2023-04-19T07:32:08.878Z,6.55
2023-04-19T07:34:37.673Z,7.72
2023-04-19T07:37:04.963Z,7.13
2023-04-19T07:39:32.168Z,6.95
2023-04-19T07:41:59.499Z,7.43
2023-04-19T07:44:26.892Z,6.90
2023-04-19T07:46:54.244Z,6.30
2023-04-19T07:49:21.521Z,6.20
2023-04-19T07:51:49.301Z,5.90
2023-04-19T07:54:18.050Z,6.13
2023-04-19T07:56:45.804Z,5.95
2023-04-19T07:59:13.053Z,5.78
2023-04-19T08:01:40.483Z,5.68
2023-04-19T08:04:08.105Z,5.88
2023-04-19T08:06:38.046Z,5.07
2023-04-19T08:09:05.268Z,5.30
2023-04-19T08:11:32.513Z,5.38
2023-04-19T08:14:09.325Z,3.80
2023-04-19T08:19:15.790Z,4.75
2023-04-19T08:21:42.985Z,4.18
2023-04-19T08:24:10.456Z,4.28
2023-04-19T08:26:39.104Z,3.80
2023-04-19T08:29:06.337Z,3.58
2023-04-19T08:31:33.693Z,4.07
2023-04-19T08:34:02.739Z,3.35
2023-04-19T08:36:39.126Z,3.60
2023-04-19T08:39:28.840Z,4.05
2023-04-19T08:42:07.041Z,3.60
2023-04-19T08:44:45.341Z,3.50
2023-04-19T08:47:30.093Z,3.55
2023-04-19T08:50:11.011Z,3.90
2023-04-19T08:52:54.909Z,3.85
2023-04-19T08:55:26.548Z,4.50
2023-04-19T08:57:53.893Z,3.40
2023-04-19T09:00:21.540Z,3.45
2023-04-19T09:02:50.440Z,3.15
2023-04-19T09:05:19.362Z,3.10
2023-04-19T09:07:47.643Z,2.97
2023-04-19T09:10:18.395Z,2.88
2023-04-19T09:13:01.620Z,3.00
2023-04-19T09:15:42.003Z,2.83
2023-04-19T09:18:10.244Z,3.38
2023-04-19T09:20:38.587Z,2.40
2023-04-19T09:23:07.420Z,2.58
2023-04-19T09:25:55.315Z,2.72
2023-04-19T09:28:22.983Z,2.30
2023-04-19T09:31:03.145Z,2.40
2023-04-19T09:33:39.659Z,1.83
2023-04-19T09:36:07.640Z,1.98
2023-04-19T09:38:48.785Z,2.00
2023-04-19T09:41:17.277Z,2.10
2023-04-19T09:44:03.161Z,1.90
2023-04-19T09:46:33.059Z,1.85
2023-04-19T09:49:33.747Z,1.58
2023-04-19T09:52:10.946Z,2.13
2023-04-19T09:54:38.438Z,2.35
2023-04-19T09:57:06.036Z,1.70
2023-04-19T09:59:33.301Z,1.80
2023-04-19T10:02:01.704Z,2.33
2023-04-19T10:04:50.023Z,2.70
2023-04-19T10:07:29.422Z,1.98
2023-04-19T10:10:11.825Z,2.22
2023-04-19T10:13:11.622Z,2.00
2023-04-19T10:15:50.023Z,3.25
2023-04-19T10:18:20.473Z,2.45
2023-04-19T10:20:57.052Z,2.10
2023-04-19T10:23:24.357Z,2.97
2023-04-19T10:25:55.967Z,2.10
2023-04-19T10:28:23.292Z,2.25
2023-04-19T10:30:54.952Z,2.25
2023-04-19T10:33:26.943Z,2.45
2023-04-19T10:35:57.437Z,2.20
2023-04-19T10:38:43.136Z,2.42
2023-04-19T10:41:16.927Z,2.10
2023-04-19T10:43:48.825Z,2.33
2023-04-19T10:46:22.276Z,2.70
2023-04-19T10:48:58.264Z,2.75
2023-04-19T10:51:35.619Z,2.47
2023-04-19T10:54:03.873Z,2.90
2023-04-19T10:56:36.389Z,2.20
2023-04-19T10:59:13.032Z,2.90
2023-04-19T11:01:54.192Z,2.65
2023-04-19T11:04:27.414Z,2.13
2023-04-19T11:06:55.417Z,2.47
2023-04-19T11:09:27.082Z,2.20
2023-04-19T11:11:55.494Z,2.17
2023-04-19T11:14:22.802Z,2.58
2023-04-19T11:16:50.210Z,2.53
2023-04-19T11:19:18.310Z,2.10
2023-04-19T11:21:46.312Z,2.78
2023-04-19T11:24:15.990Z,2.00
2023-04-19T11:26:44.172Z,2.40
2023-04-19T11:29:11.513Z,2.00
2023-04-19T11:31:39.008Z,2.75
2023-04-19T11:34:06.316Z,2.40
2023-04-19T11:36:36.666Z,2.38
2023-04-19T11:39:06.955Z,2.28
2023-04-19T11:41:40.462Z,2.20
2023-04-19T11:44:19.648Z,2.67
2023-04-19T11:47:00.469Z,2.50
2023-04-19T11:49:31.533Z,2.33
2023-04-19T11:52:05.388Z,2.78
2023-04-19T11:54:33.752Z,2.85
2023-04-19T11:57:03.461Z,2.80
2023-04-19T11:59:32.201Z,2.78
2023-04-19T12:02:09.842Z,3.10
2023-04-19T12:04:37.699Z,3.17
2023-04-19T12:07:06.258Z,3.65
2023-04-19T12:09:35.064Z,3.42
2023-04-19T12:12:03.070Z,3.47
2023-04-19T12:14:31.580Z,3.30
2023-04-19T12:17:09.380Z,3.13
2023-04-19T12:19:37.651Z,3.20
2023-04-19T12:22:12.076Z,2.97
2023-04-19T12:24:40.256Z,2.55
2023-04-19T12:27:07.595Z,2.93
2023-04-19T12:29:35.034Z,3.42
2023-04-19T12:32:02.771Z,2.97
2023-04-19T12:34:30.037Z,3.25
2023-04-19T12:36:57.827Z,4.15
2023-04-19T12:39:25.442Z,3.60
2023-04-19T12:41:52.869Z,3.30
2023-04-19T12:44:20.165Z,3.28
2023-04-19T12:46:47.658Z,3.47
2023-04-19T12:49:15.228Z,3.47
2023-04-19T12:51:42.801Z,3.20
2023-04-19T12:54:10.377Z,2.83
2023-04-19T12:56:37.889Z,3.03
2023-04-19T12:59:06.074Z,3.47
2023-04-19T13:01:34.257Z,3.30
2023-04-19T13:04:01.715Z,3.05
2023-04-19T13:06:29.098Z,3.15
2023-04-19T13:09:00.469Z,3.33
2023-04-19T13:11:28.717Z,3.50
2023-04-19T13:13:56.052Z,4.25
2023-04-19T13:16:23.357Z,3.25
2023-04-19T13:18:52.363Z,3.45
2023-04-19T13:23:46.859Z,3.47
2023-04-19T13:26:14.078Z,3.60
2023-04-19T13:28:42.400Z,4.70
2023-04-19T13:31:09.800Z,3.17
2023-04-19T13:33:37.108Z,3.50
2023-04-19T13:36:04.734Z,3.17
2023-04-19T13:38:32.343Z,3.67
2023-04-19T13:40:59.913Z,3.03
2023-04-19T13:43:27.327Z,2.30
2023-04-19T13:45:54.748Z,3.10
2023-04-19T13:48:22.083Z,3.88
2023-04-19T13:50:51.122Z,3.63
2023-04-19T13:53:18.771Z,4.05
2023-04-19T13:55:46.521Z,3.10
2023-04-19T13:58:13.750Z,3.42
2023-04-19T14:00:41.071Z,3.00
2023-04-19T14:03:08.716Z,2.97
2023-04-19T14:05:36.269Z,3.30
2023-04-19T14:08:03.551Z,4.10
2023-04-19T14:10:31.254Z,3.10
2023-04-19T14:12:58.590Z,2.78
2023-04-19T14:15:25.925Z,3.10
2023-04-19T14:17:53.395Z,3.00
2023-04-19T14:20:20.817Z,3.47
2023-04-19T14:22:48.049Z,3.60
2023-04-19T14:25:15.627Z,3.20
2023-04-19T14:27:42.925Z,3.00
2023-04-19T14:30:10.437Z,3.42
2023-04-19T14:32:38.331Z,2.80
2023-04-19T14:35:05.994Z,2.75
2023-04-19T14:37:33.247Z,2.58
2023-04-19T14:40:00.495Z,2.95
2023-04-19T14:42:27.792Z,2.22
2023-04-19T14:44:55.052Z,2.45
2023-04-19T14:47:22.370Z,3.17
2023-04-19T14:49:49.745Z,2.40
2023-04-19T14:52:17.081Z,2.55
2023-04-19T14:54:44.476Z,2.13
2023-04-19T14:57:12.103Z,2.35
2023-04-19T14:59:39.630Z,2.60
2023-04-19T15:02:07.002Z,2.65
2023-04-19T15:04:40.666Z,2.13
2023-04-19T15:07:08.388Z,2.50
2023-04-19T15:09:35.771Z,2.55
2023-04-19T15:12:03.146Z,2.55
2023-04-19T15:14:30.431Z,2.47
2023-04-19T15:16:57.725Z,2.50
2023-04-19T15:19:25.026Z,3.17
2023-04-19T15:21:52.290Z,2.70
2023-04-19T15:24:19.673Z,3.55
2023-04-19T15:26:47.134Z,3.10
2023-04-19T15:29:14.827Z,3.10
2023-04-19T15:31:42.330Z,3.10
2023-04-19T15:34:09.653Z,3.22
2023-04-19T15:36:36.942Z,3.42
2023-04-19T15:39:04.369Z,3.80
2023-04-19T15:41:31.595Z,3.50
2023-04-19T15:43:58.856Z,3.25
2023-04-19T15:46:26.221Z,3.78
2023-04-19T15:48:53.638Z,3.72
2023-04-19T15:51:20.907Z,3.85
2023-04-19T15:53:48.137Z,3.72
2023-04-19T15:56:15.880Z,3.95
2023-04-19T15:58:43.147Z,4.43
2023-04-19T16:01:13.537Z,3.90
2023-04-19T16:03:41.375Z,4.22
2023-04-19T16:06:09.039Z,3.53
2023-04-19T16:08:36.669Z,4.00
2023-04-19T16:11:04.164Z,4.80
2023-04-19T16:13:31.670Z,4.03
2023-04-19T16:15:59.072Z,4.50
2023-04-19T16:18:26.412Z,4.10
2023-04-19T16:20:54.185Z,4.35
2023-04-19T16:23:21.514Z,4.70
2023-04-19T16:25:48.845Z,5.00
2023-04-19T16:28:16.369Z,4.90
2023-04-19T16:30:43.669Z,4.57
2023-04-19T16:33:11.370Z,7.03
2023-04-19T16:35:38.806Z,5.60
2023-04-19T16:38:06.959Z,5.35
2023-04-19T16:40:34.258Z,4.47
2023-04-19T16:43:04.210Z,5.15
2023-04-19T16:45:31.497Z,5.40
2023-04-19T16:47:58.789Z,5.68
2023-04-19T16:50:26.201Z,6.03
2023-04-19T16:52:53.471Z,5.68
2023-04-19T16:55:21.753Z,6.55
2023-04-19T16:57:50.950Z,4.93
2023-04-19T17:02:45.818Z,5.10
2023-04-19T17:05:14.362Z,6.22
2023-04-19T17:07:41.725Z,5.40
2023-04-19T17:10:09.279Z,5.45
2023-04-19T17:12:36.748Z,5.00
2023-04-19T17:15:04.101Z,5.35
2023-04-19T17:17:31.409Z,6.00
2023-04-19T17:19:58.815Z,5.25
2023-04-19T17:22:26.235Z,5.05
2023-04-19T17:24:55.894Z,5.28
2023-04-19T17:27:23.225Z,4.82
2023-04-19T17:29:50.440Z,4.53
2023-04-19T17:32:17.844Z,5.43
2023-04-19T17:34:45.228Z,5.60
2023-04-19T17:37:12.520Z,5.65
2023-04-19T17:39:39.824Z,5.20
2023-04-19T17:42:07.136Z,5.28
2023-04-19T17:44:34.473Z,5.90
2023-04-19T17:47:01.994Z,5.15
2023-04-19T17:49:29.343Z,5.20
2023-04-19T17:51:56.755Z,6.20
2023-04-19T17:54:24.198Z,5.20
2023-04-19T17:56:52.527Z,5.13
2023-04-19T17:59:19.896Z,4.70
2023-04-19T18:01:47.168Z,4.45
2023-04-19T18:04:17.853Z,4.80
2023-04-19T18:06:45.738Z,6.18
2023-04-19T18:09:13.296Z,4.65
2023-04-19T18:11:40.890Z,4.85
2023-04-19T18:14:08.241Z,4.63
2023-04-19T18:16:35.527Z,5.20
2023-04-19T18:19:02.863Z,4.25
2023-04-19T18:21:30.103Z,4.93
2023-04-19T18:23:58.001Z,4.55
2023-04-19T18:26:25.427Z,4.45
2023-04-19T18:28:52.789Z,4.30
2023-04-19T18:31:20.145Z,4.00
2023-04-19T18:33:47.392Z,5.03
2023-04-19T18:36:14.635Z,4.90
2023-04-19T18:38:41.889Z,3.78
2023-04-19T18:41:09.149Z,3.55
2023-04-19T18:43:36.410Z,3.63
2023-04-19T18:46:03.765Z,3.10
2023-04-19T18:48:31.218Z,3.13
2023-04-19T18:50:59.372Z,3.42
2023-04-19T18:53:31.486Z,2.95
2023-04-19T18:55:58.988Z,3.80
2023-04-19T18:58:29.592Z,3.95
2023-04-19T19:00:57.156Z,3.60
2023-04-19T19:05:55.846Z,3.30
2023-04-19T19:08:23.436Z,3.25
2023-04-19T19:13:21.372Z,3.85
2023-04-19T19:15:48.708Z,3.92
2023-04-19T19:18:16.114Z,3.70
2023-04-19T19:20:43.436Z,3.85
2023-04-19T19:23:12.120Z,3.50
2023-04-19T19:25:40.813Z,3.40
2023-04-19T19:28:09.956Z,3.08
2023-04-19T19:30:39.987Z,4.18
2023-04-19T19:33:07.559Z,3.80
2023-04-19T19:35:34.873Z,3.97
2023-04-19T19:38:02.336Z,4.13
2023-04-19T19:40:32.385Z,4.00
2023-04-19T19:43:00.302Z,4.88
2023-04-19T19:45:28.615Z,3.55
2023-04-19T19:47:58.841Z,3.90
2023-04-19T19:51:05.071Z,3.20
2023-04-19T19:53:13.719Z,3.45
2023-04-19T19:55:41.031Z,3.63
2023-04-19T20:00:46.340Z,3.45
2023-04-19T20:03:28.439Z,3.35
2023-04-19T20:06:00.940Z,3.25
2023-04-19T20:08:31.210Z,3.67
2023-04-19T20:10:59.034Z,4.07
2023-04-19T20:13:26.300Z,3.55
2023-04-19T20:15:54.560Z,3.55
2023-04-19T20:18:21.883Z,3.50
2023-04-19T20:20:49.188Z,3.50
2023-04-19T20:23:16.718Z,3.75
2023-04-19T20:25:43.978Z,2.95
2023-04-19T20:28:12.438Z,3.92
2023-04-19T20:30:39.712Z,3.55
2023-04-19T20:33:06.990Z,4.80
2023-04-19T20:35:37.271Z,4.22
2023-04-19T20:38:04.492Z,3.70
2023-04-19T20:40:33.043Z,3.50
2023-04-19T20:43:00.308Z,3.30
2023-04-19T20:45:27.740Z,3.30
2023-04-19T20:47:55.693Z,3.20
2023-04-19T20:50:23.082Z,3.78
2023-04-19T20:52:50.361Z,3.67
2023-04-19T20:55:17.678Z,3.65
2023-04-19T20:57:45.036Z,3.53
2023-04-19T21:00:12.650Z,3.42
2023-04-19T21:02:40.228Z,3.40
2023-04-19T21:05:07.688Z,3.22
2023-04-19T21:07:34.973Z,3.50
2023-04-19T21:10:02.212Z,3.38
2023-04-19T21:12:29.642Z,3.58
2023-04-19T21:14:56.934Z,3.78
2023-04-19T21:17:24.242Z,3.65
2023-04-19T21:19:51.479Z,3.33
2023-04-19T21:22:18.833Z,3.70
2023-04-19T21:24:46.175Z,3.70
2023-04-19T21:27:13.446Z,4.15
2023-04-19T21:29:40.737Z,3.90
2023-04-19T21:32:07.985Z,4.10
2023-04-19T21:34:35.276Z,3.60
2023-04-19T21:37:02.553Z,3.28
2023-04-19T21:39:29.774Z,3.72
2023-04-19T21:41:57.475Z,3.22
2023-04-19T21:44:24.749Z,4.57
2023-04-19T21:46:52.070Z,3.83
2023-04-19T21:49:19.343Z,3.55
2023-04-19T21:51:46.613Z,3.30
2023-04-19T21:54:20.534Z,3.88
2023-04-19T21:56:58.144Z,3.63
2023-04-19T21:59:25.472Z,3.30
2023-04-19T22:01:54.062Z,3.33
2023-04-19T22:04:21.567Z,3.50
2023-04-19T22:06:49.284Z,3.88
2023-04-19T22:09:16.789Z,3.13
2023-04-19T22:11:44.652Z,3.63
2023-04-19T22:14:12.286Z,3.40
2023-04-19T22:16:39.642Z,3.92
2023-04-19T22:19:07.944Z,3.50
2023-04-19T22:21:35.256Z,4.22
2023-04-19T22:24:02.598Z,3.17
2023-04-19T22:26:29.897Z,3.33
2023-04-19T22:28:57.277Z,3.50
2023-04-19T22:31:24.539Z,3.50
2023-04-19T22:33:51.787Z,3.08
2023-04-19T22:36:19.056Z,3.10
2023-04-19T22:38:46.447Z,3.42
2023-04-19T22:41:13.634Z,3.03
2023-04-19T22:43:40.805Z,4.35
2023-04-19T22:46:08.061Z,3.15
2023-04-19T22:48:36.393Z,3.35
2023-04-19T22:51:03.975Z,2.17
2023-04-19T22:53:31.452Z,3.80
2023-04-19T22:55:58.670Z,3.08
2023-04-19T22:58:25.912Z,3.28
2023-04-19T23:00:53.145Z,3.10
2023-04-19T23:03:20.374Z,2.97
2023-04-19T23:05:47.762Z,2.88
2023-04-19T23:08:15.610Z,2.63
2023-04-19T23:10:43.553Z,2.72
2023-04-19T23:13:11.046Z,3.15
2023-04-19T23:15:39.260Z,2.60
2023-04-19T23:18:07.074Z,3.47
2023-04-19T23:20:35.715Z,2.17
2023-04-19T23:23:03.008Z,2.70
2023-04-19T23:25:30.336Z,2.47
2023-04-19T23:27:57.690Z,2.80
2023-04-19T23:30:25.457Z,2.70
2023-04-19T23:32:52.671Z,3.30
2023-04-19T23:35:20.012Z,2.53
2023-04-19T23:37:47.244Z,2.30
2023-04-19T23:40:15.172Z,3.15
2023-04-19T23:42:42.384Z,2.53
2023-04-19T23:45:11.387Z,2.47
2023-04-19T23:47:38.613Z,2.65
2023-04-19T23:50:06.154Z,3.22
2023-04-19T23:52:33.582Z,2.85
2023-04-19T23:55:00.974Z,2.97
2023-04-19T23:57:28.225Z,2.53
2023-04-19T23:59:55.610Z,2.35
